Terminal Aerodrome Forecast
Issued by NWS

Home | Current Version | Previous Version | Text Only | Print | Product List | Glossary On
Versions: 1 2 3 4 5 6 7 8 9 10 11 12 13 14 15 16 17 18 19 20 21 22 23 24 25 26 27
120
FTUS46 KMTR 221700
TAFSFO
TAF
KSFO 221720Z 2218/2324 27010KT P6SM FEW010 SCT018 BKN040
      TEMPO 2218/2220 BKN018 BKN040
     FM222200 27015KT P6SM FEW020 BKN040
     FM230300 26010KT P6SM SCT015 BKN025
     FM230800 26008KT P6SM OVC015
     FM231800 25011KT P6SM BKN016 BKN022
     FM232100 26014KT P6SM SCT020 BKN030=

USA.gov is the U.S. government's official web portal to all federal, state and local government web resources and services.